Ben-my-chree — MXLG6 — position and weather

sailwx.info

Track history (hours):
 
Tides and Currents Weather Stations Pressure Air Temp Water Temp Dewpoint Dewpoint Depression Visibility Wind Speed Wind Dir Waves Ship Positions

Ben-my-chree

Operator: The Isle of Man Steam Packet Co Ltd

Last reported at 2018-Dec-10 17:18 UTC. Time now 2018-Dec-11 06:29 UTC.
Position N 54°09' W 004°23'.

Length 120 m; draft 5 m.

Type: Passenger vessel. MMSI: 234983000.

Date/timePositionNaut miles runAvg speedWind from/ knotsBaromVisibWave heightAir tempDewpointWater temp
2018-Dec-10 17:18N 54°09' W 004°23'6 0.5
2018-Dec-10 04:53N 54°06' W 004°14'1517.8
2018-Dec-10 04:01N 53°60' W 003°50'19 1.9
2018-Dec-09 17:42N 54°07' W 004°20'417.3
2018-Dec-09 17:29N 54°04' W 004°16'3417.4
2018-Dec-09 15:31N 53°40' W 003°35'017.1
2018-Dec-09 15:30N 53°40' W 003°35'817.2
2018-Dec-09 15:01N 53°35' W 003°24'816.9
2018-Dec-09 14:31N 53°32' W 003°10'917.8
2018-Dec-09 14:00N 53°25' W 003°01'1 1.4
2018-Dec-09 13:28N 53°24' W 003°01'0 0.0
2018-Dec-09 12:58N 53°24' W 003°01'0 0.0
2018-Dec-09 12:28N 53°24' W 003°01'0 0.0
2018-Dec-09 12:00N 53°24' W 003°01'4 9.0
2018-Dec-09 11:30N 53°28' W 003°04'816.0
2018-Dec-09 11:01N 53°31' W 003°16'918.6
2018-Dec-09 10:30N 53°37' W 003°29'32 5.3
2018-Dec-09 04:30N 54°02' W 004°01'2117.0
2018-Dec-09 03:15N 53°56' W 003°26'32 3.6
2018-Dec-08 18:19N 54°05' W 004°18'3815.6
2018-Dec-08 15:53N 53°39' W 003°32'616.3
2018-Dec-08 15:30N 53°35' W 003°24'816.3
2018-Dec-08 15:00N 53°32' W 003°12'917.0
2018-Dec-08 14:30N 53°26' W 003°01'2 3.7
2018-Dec-08 14:00N 53°24' W 003°01'0 0.0
2018-Dec-08 13:30N 53°24' W 003°01'0 0.0
2018-Dec-08 13:00N 53°24' W 003°01'0 0.0
2018-Dec-08 12:31N 53°24' W 003°01'3 6.0
2018-Dec-08 12:00N 53°27' W 003°02'815.2
2018-Dec-08 11:30N 53°31' W 003°13'917.1
2018-Dec-08 11:01N 53°35' W 003°25'917.3
2018-Dec-08 10:30N 53°40' W 003°37'35 1.2
2018-Dec-07 04:34N 54°07' W 004°16'116.4
2018-Dec-07 04:30N 54°06' W 004°15'1316.9
2018-Dec-07 03:45N 54°01' W 003°55'1 0.1
2018-Dec-06 20:35N 54°01' W 003°53'18 5.3
2018-Dec-06 17:15N 54°08' W 004°21'617.6
2018-Dec-06 16:54N 54°05' W 004°12'817.6
2018-Dec-06 16:28N 54°02' W 003°59'17 1.6
2018-Dec-06 05:44N 54°09' W 004°26'517.1
2018-Dec-06 05:28N 54°08' W 004°18'817.8
2018-Dec-06 05:00N 54°04' W 004°06'2318.1
2018-Dec-06 03:44N 53°55' W 003°30'25 2.3
2018-Dec-05 16:53N 54°06' W 004°08'917.4
2018-Dec-05 16:22N 54°01' W 003°55'17 1.5
2018-Dec-05 04:54N 54°08' W 004°21'1717.8
2018-Dec-05 03:58N 54°01' W 003°54'14 1.3
2018-Dec-04 17:06N 54°07' W 004°17'1517.6
2018-Dec-04 16:15N 54°01' W 003°54'15 1.3
2018-Dec-04 04:44N 54°07' W 004°17'1517.0
2018-Dec-04 03:52N 54°01' W 003°54'13 1.2
2018-Dec-03 17:02N 54°06' W 004°15'117.2
2018-Dec-03 17:00N 54°06' W 004°13'7 0.7
2018-Dec-03 06:20N 54°09' W 004°25'1116.9
2018-Dec-03 05:42N 54°05' W 004°08'716.5
2018-Dec-03 05:15N 54°02' W 003°56'1416.2
2018-Dec-03 04:23N 53°57' W 003°34'17 1.3
2018-Dec-02 15:39N 53°40' W 003°34'316.9
2018-Dec-02 15:28N 53°38' W 003°30'816.9
2018-Dec-02 15:00N 53°33' W 003°20'816.3
2018-Dec-02 14:30N 53°31' W 003°07'815.8
2018-Dec-02 14:00N 53°24' W 003°01'0 0.1
2018-Dec-02 13:28N 53°24' W 003°01'0 0.0
2018-Dec-02 13:00N 53°24' W 003°01'0 0.3
2018-Dec-02 12:30N 53°24' W 003°00'611.5
2018-Dec-02 12:00N 53°29' W 003°05'713.8
2018-Dec-02 11:30N 53°31' W 003°16'611.2
2018-Dec-02 10:59N 53°34' W 003°24'49 8.9
2018-Dec-02 05:29N 54°09' W 004°23'3317.0
2018-Dec-02 03:31N 53°56' W 003°31'31 3.3
2018-Dec-01 17:56N 54°07' W 004°21'4117.1
2018-Dec-01 15:33N 53°38' W 003°31'117.0
2018-Dec-01 15:30N 53°38' W 003°30'816.9
2018-Dec-01 15:00N 53°32' W 003°20'816.2
2018-Dec-01 14:30N 53°31' W 003°06'815.4
2018-Dec-01 14:00N 53°24' W 003°01'0 0.1
2018-Dec-01 13:29N 53°24' W 003°01'0 0.0
2018-Dec-01 12:59N 53°24' W 003°01'0 0.0
2018-Dec-01 12:30N 53°24' W 003°01'4 9.0
2018-Dec-01 12:00N 53°28' W 003°04'713.5
2018-Dec-01 11:30N 53°31' W 003°14'816.7
2018-Dec-01 11:00N 53°35' W 003°26'816.6
2018-Dec-01 10:30N 53°41' W 003°37'24 4.1
2018-Dec-01 04:42N 54°02' W 003°56'  
Track history (hours):
 
Tides and Currents Weather Stations Pressure Air Temp Water Temp Dewpoint Dewpoint Depression Visibility Wind Speed Wind Dir Waves Ship Positions

Ben-my-chree

Operator: The Isle of Man Steam Packet Co Ltd

Last reported at 2018-Dec-10 17:18 UTC. Time now 2018-Dec-11 06:29 UTC.
Position N 54°09' W 004°23'.

Length 120 m; draft 5 m.

Type: Passenger vessel. MMSI: 234983000.

Date/timePositionNaut miles runAvg speedWind from/ knotsBaromVisibWave heightAir tempDewpointWater temp
2018-Dec-10 17:18N 54°09' W 004°23'6 0.5
2018-Dec-10 04:53N 54°06' W 004°14'1517.8
2018-Dec-10 04:01N 53°60' W 003°50'19 1.9
2018-Dec-09 17:42N 54°07' W 004°20'417.3
2018-Dec-09 17:29N 54°04' W 004°16'3417.4
2018-Dec-09 15:31N 53°40' W 003°35'017.1
2018-Dec-09 15:30N 53°40' W 003°35'817.2
2018-Dec-09 15:01N 53°35' W 003°24'816.9
2018-Dec-09 14:31N 53°32' W 003°10'917.8
2018-Dec-09 14:00N 53°25' W 003°01'1 1.4
2018-Dec-09 13:28N 53°24' W 003°01'0 0.0
2018-Dec-09 12:58N 53°24' W 003°01'0 0.0
2018-Dec-09 12:28N 53°24' W 003°01'0 0.0
2018-Dec-09 12:00N 53°24' W 003°01'4 9.0
2018-Dec-09 11:30N 53°28' W 003°04'816.0
2018-Dec-09 11:01N 53°31' W 003°16'918.6
2018-Dec-09 10:30N 53°37' W 003°29'32 5.3
2018-Dec-09 04:30N 54°02' W 004°01'2117.0
2018-Dec-09 03:15N 53°56' W 003°26'32 3.6
2018-Dec-08 18:19N 54°05' W 004°18'3815.6
2018-Dec-08 15:53N 53°39' W 003°32'616.3
2018-Dec-08 15:30N 53°35' W 003°24'816.3
2018-Dec-08 15:00N 53°32' W 003°12'917.0
2018-Dec-08 14:30N 53°26' W 003°01'2 3.7
2018-Dec-08 14:00N 53°24' W 003°01'0 0.0
2018-Dec-08 13:30N 53°24' W 003°01'0 0.0
2018-Dec-08 13:00N 53°24' W 003°01'0 0.0
2018-Dec-08 12:31N 53°24' W 003°01'3 6.0
2018-Dec-08 12:00N 53°27' W 003°02'815.2
2018-Dec-08 11:30N 53°31' W 003°13'917.1
2018-Dec-08 11:01N 53°35' W 003°25'917.3
2018-Dec-08 10:30N 53°40' W 003°37'35 1.2
2018-Dec-07 04:34N 54°07' W 004°16'116.4
2018-Dec-07 04:30N 54°06' W 004°15'1316.9
2018-Dec-07 03:45N 54°01' W 003°55'1 0.1
2018-Dec-06 20:35N 54°01' W 003°53'18 5.3
2018-Dec-06 17:15N 54°08' W 004°21'617.6
2018-Dec-06 16:54N 54°05' W 004°12'817.6
2018-Dec-06 16:28N 54°02' W 003°59'17 1.6
2018-Dec-06 05:44N 54°09' W 004°26'517.1
2018-Dec-06 05:28N 54°08' W 004°18'817.8
2018-Dec-06 05:00N 54°04' W 004°06'2318.1
2018-Dec-06 03:44N 53°55' W 003°30'25 2.3
2018-Dec-05 16:53N 54°06' W 004°08'917.4
2018-Dec-05 16:22N 54°01' W 003°55'17 1.5
2018-Dec-05 04:54N 54°08' W 004°21'1717.8
2018-Dec-05 03:58N 54°01' W 003°54'14 1.3
2018-Dec-04 17:06N 54°07' W 004°17'1517.6
2018-Dec-04 16:15N 54°01' W 003°54'15 1.3
2018-Dec-04 04:44N 54°07' W 004°17'1517.0
2018-Dec-04 03:52N 54°01' W 003°54'13 1.2
2018-Dec-03 17:02N 54°06' W 004°15'117.2
2018-Dec-03 17:00N 54°06' W 004°13'7 0.7
2018-Dec-03 06:20N 54°09' W 004°25'1116.9
2018-Dec-03 05:42N 54°05' W 004°08'716.5
2018-Dec-03 05:15N 54°02' W 003°56'1416.2
2018-Dec-03 04:23N 53°57' W 003°34'17 1.3
2018-Dec-02 15:39N 53°40' W 003°34'316.9
2018-Dec-02 15:28N 53°38' W 003°30'816.9
2018-Dec-02 15:00N 53°33' W 003°20'816.3
2018-Dec-02 14:30N 53°31' W 003°07'815.8
2018-Dec-02 14:00N 53°24' W 003°01'0 0.1
2018-Dec-02 13:28N 53°24' W 003°01'0 0.0
2018-Dec-02 13:00N 53°24' W 003°01'0 0.3
2018-Dec-02 12:30N 53°24' W 003°00'611.5
2018-Dec-02 12:00N 53°29' W 003°05'713.8
2018-Dec-02 11:30N 53°31' W 003°16'611.2
2018-Dec-02 10:59N 53°34' W 003°24'49 8.9
2018-Dec-02 05:29N 54°09' W 004°23'3317.0
2018-Dec-02 03:31N 53°56' W 003°31'31 3.3
2018-Dec-01 17:56N 54°07' W 004°21'4117.1
2018-Dec-01 15:33N 53°38' W 003°31'117.0
2018-Dec-01 15:30N 53°38' W 003°30'816.9
2018-Dec-01 15:00N 53°32' W 003°20'816.2
2018-Dec-01 14:30N 53°31' W 003°06'815.4
2018-Dec-01 14:00N 53°24' W 003°01'0 0.1
2018-Dec-01 13:29N 53°24' W 003°01'0 0.0
2018-Dec-01 12:59N 53°24' W 003°01'0 0.0
2018-Dec-01 12:30N 53°24' W 003°01'4 9.0
2018-Dec-01 12:00N 53°28' W 003°04'713.5
2018-Dec-01 11:30N 53°31' W 003°14'816.7
2018-Dec-01 11:00N 53°35' W 003°26'816.6
2018-Dec-01 10:30N 53°41' W 003°37'24 4.1
2018-Dec-01 04:42N 54°02' W 003°56'  

Dump ship's entire track history